Tamms, IL (62988)

2:51 AM CDT on August 01, 2014 (GMT -0500)
Cairo Regional (KCIR) Elev 322 ft | 37.06 °N, 89.22 °W | Change Station

Current weather conditions updated 16 minutes ago

Scattered Clouds
Scattered Clouds
63 °F
Feels Like 63 °F
N
0
Wind Variable Wind from North

Today is forecast to be Warmer than yesterday.

Today
High -- | Low -- °F
--% Chance of Precip.
Yesterday
High -- | Low -- °F
Precip. -- in
6:01 AM 8:04 PM
Waxing Crescent, 24% visible
Pressure 30.07 in
Visibility 4.0 miles
Clouds Scattered Clouds 8500 ft
Dew Point 61 °F
Humidity 92%
Rainfall 0.00 in
Snow Depth Not available.
UV 0 out of 12
Pollen 6.90 out of 12
Air Quality Not available.
Flu Activity Not available.
METAR KCIR 010735Z AUTO 00000KT 4SM BR SCT085 17/16 A3007 RMK AO2 T01730160

More Conditions Fewer Conditions

Pressure 30.07 in
Visibility 4.0 miles
Clouds Scattered Clouds 8500 ft
Dew Point 61 °F
Humidity 92%
Rainfall 0.00 in
Snow Depth Not available.
UV 0 out of 12
Pollen 6.90 out of 12
Air Quality Not available.
Flu Activity Not available.
METAR KCIR 010735Z AUTO 00000KT 4SM BR SCT085 17/16 A3007 RMK AO2 T01730160

More Conditions Fewer Conditions

10-Day Weather Forecast

Almanac

Astronomy

Aug. 01, 2014 Rise Set
Actual Time 6:01 AM CDT 8:04 PM CDT
Civil Twilight 5:32 AM CDT 8:33 PM CDT
Nautical Twilight 4:57 AM CDT 9:08 PM CDT
Astronomical Twilight 4:19 AM CDT 9:46 PM CDT
Moon 11:17 AM CDT 10:57 PM CDT
Length of Visible Light 15h 00m
Length of Day
14h 02m
Tomorrow will be 1m 49s shorter.
Waxing Crescent, 24% of the Moon is Illuminated
Today
Waxing Crescent
Aug 3
First Quarter
Aug 10
Full
Aug 17
Last Quarter
Aug 25
New

Today's Extremes

State Highs State Lows

Community

WunderPhotos

Upload Photos

1,739,522 photos uploaded!

Nearby

Snow Depth

Station Depth Elevation
No new snow has been reported.

Earthquake Activity

City Distance Mag. Time & Date
No recent earthquake activity has been reported nearby.
Minimum magnitude displayed is 2.5.

Coastal Water Temperatures

Place Temperature
No Stations Reporting

Nearby Weather Stations

Station Location Temp. Dew Point Humidity Wind Precip. Elev Updated Type
MesoWest QUARRY , Kelso, MO 69 °F - - North  at  - 0.00 in / hr 341 ft 1:05 AM CDT MADIS
WeatherTop, Cape Girardeau, MO 61.5 °F 61 °F 98% SW  at  0.0 mph 0.00 in / hr 492 ft 2:44 AM CDT Normal
South Adkins Dixon Road, Wickliffe, KY 62.9 °F 61 °F 94% WSW  at  0.0 mph 0.00 in / hr 443 ft 2:51 AM CDT Rapid Fire
Dept. of Social Mediarology, Jackson, MO 61.9 °F 60 °F 93% SSE  at  0.0 mph - / hr 522 ft 2:38 AM CDT Normal
Jackson, MO - Goose Creek at Old Cape Rd, Jackson, MO 62.8 °F 62 °F 99% NE  at  0.0 mph - / hr 535 ft 2:46 AM CDT Normal

Show More Stations Show Fewer Stations